KLEX/LEX METAR and TAF weather

Enter ICAO airport designator
Station Type Date Time Source
KLEX METAR 2020/01/23 05:54 UTC NOAA

KLEX 230554Z 13005KT 10SM CLR 02/M08 A3022 RMK AO2 SLP239 T00221083 10033 20011 58008


Station Type Date Time Source
KLEX Decoded METAR 2020/01/23 05:54 UTC NOAA

LEXINGTON BLUE GRASS AIRPORT, KY, United States (KLEX) 38-02N 084-36W 300M
Jan 23, 2020 - 12:54 AM EST / 2020.01.23 0554 UTC
Wind: from the SE (130 degrees) at 6 MPH (5 KT):0
Visibility: 10 mile(s):0
Sky conditions: clear
Temperature: 36.0 F (2.2 C)
Dew Point: 17.1 F (-8.3 C)
Relative Humidity: 45%
Pressure (altimeter): 30.22 in. Hg (1023 hPa)
Pressure tendency: 0.02 inches (0.8 hPa) lower than three hours ago
ob: KLEX 230554Z 13005KT 10SM CLR 02/M08 A3022 RMK AO2 SLP239 T00221083 10033 20011 58008
cycle: 6

Station Type Date Time Source
KLEX TAF 2020/01/23 06:30 UTC NOAA

TAF KLEX 230528Z 2306/2406 13004KT P6SM OVC150
FM231600 17008KT P6SM SCT050 OVC100
FM232000 14008KT 6SM -RA BR SCT025 OVC050
TEMPO 2321/2401 4SM RA BR OVC025
FM240400 12010KT 5SM -RA BR OVC015

Example: see airport list